Time;durP1;ratioP1;P1;durP2;ratioP2;P2;SDS_P1;SDS_P2;PMS_P1;PMS_P2;Temp;Humidity;BMP_temperature;BMP_pressure;BME280_temperature;BME280_humidity;BME280_pressure;Samples;Min_cycle;Max_cycle;Signal;HPM_P1;HPM_P2
2022/01/07 00:00:18;;;;;;;18.90;6.87;;;3.60;99.90;;;;;;4969123;28;20138;-29
2022/01/07 00:02:55;;;;;;;19.27;7.37;;;3.60;99.90;;;;;;4987157;28;20049;-30
2022/01/07 00:05:22;;;;;;;14.50;7.20;;;3.60;99.90;;;;;;4989037;28;20483;-29
2022/01/07 00:07:47;;;;;;;15.77;6.80;;;3.60;99.90;;;;;;4972242;28;20073;-29
2022/01/07 00:10:15;;;;;;;16.43;6.57;;;3.60;99.90;;;;;;4988222;28;20042;-29
2022/01/07 00:12:41;;;;;;;15.67;6.40;;;3.60;99.90;;;;;;4954640;28;20059;-29
2022/01/07 00:15:07;;;;;;;21.13;7.10;;;3.60;99.90;;;;;;4988288;28;20057;-29
2022/01/07 00:17:34;;;;;;;17.37;6.47;;;3.60;99.90;;;;;;4972343;28;20128;-30
2022/01/07 00:20:00;;;;;;;19.47;6.70;;;3.60;99.90;;;;;;4988601;28;20105;-30
2022/01/07 00:22:26;;;;;;;16.63;6.43;;;3.60;99.90;;;;;;4988021;28;20411;-30
2022/01/07 00:24:52;;;;;;;16.23;6.73;;;3.60;99.90;;;;;;4988676;28;20125;-30
2022/01/07 00:27:17;;;;;;;16.07;6.93;;;3.60;99.90;;;;;;4972102;28;20145;-29
2022/01/07 00:29:43;;;;;;;15.17;6.20;;;3.60;99.90;;;;;;4986798;28;20045;-29
2022/01/07 00:32:09;;;;;;;18.17;6.60;;;3.50;99.90;;;;;;4987528;28;20034;-29
2022/01/07 00:34:35;;;;;;;20.53;7.07;;;3.50;99.90;;;;;;4988598;28;20050;-30
2022/01/07 00:37:00;;;;;;;17.70;6.73;;;3.50;99.90;;;;;;4971584;28;20042;-30
2022/01/07 00:39:26;;;;;;;20.10;6.93;;;3.50;99.90;;;;;;4968810;28;20403;-29
2022/01/07 00:41:52;;;;;;;17.37;6.90;;;3.40;99.90;;;;;;4968848;28;20403;-29
2022/01/07 00:44:17;;;;;;;17.30;7.77;;;3.40;99.90;;;;;;4968334;28;20051;-30
2022/01/07 00:46:43;;;;;;;19.23;7.50;;;3.30;99.90;;;;;;4953848;28;20034;-30
2022/01/07 00:49:10;;;;;;;18.80;7.00;;;3.30;99.90;;;;;;4971593;28;20085;-30
2022/01/07 00:51:36;;;;;;;18.43;7.40;;;3.30;99.90;;;;;;4972425;28;20066;-30
2022/01/07 00:54:02;;;;;;;16.67;7.10;;;3.30;99.90;;;;;;4971664;28;20505;-29
2022/01/07 00:56:28;;;;;;;16.07;6.93;;;3.30;99.90;;;;;;4960240;28;20065;-29
2022/01/07 00:58:53;;;;;;;16.40;6.73;;;3.20;99.90;;;;;;4968342;28;20125;-30
2022/01/07 01:01:19;;;;;;;15.17;6.63;;;3.20;99.90;;;;;;4981169;28;20060;-30
2022/01/07 01:03:45;;;;;;;17.50;7.13;;;3.20;99.90;;;;;;4990505;28;20046;-30
2022/01/07 01:06:10;;;;;;;18.27;6.73;;;3.20;99.90;;;;;;4983905;28;20046;-30
2022/01/07 01:08:36;;;;;;;13.90;6.00;;;3.20;99.90;;;;;;4983049;28;20117;-29
2022/01/07 01:11:02;;;;;;;18.80;7.17;;;3.10;99.90;;;;;;4991244;28;20418;-30
2022/01/07 01:13:31;;;;;;;21.23;7.63;;;3.10;99.90;;;;;;4990832;28;20096;-30
2022/01/07 01:15:57;;;;;;;15.77;6.90;;;3.10;99.90;;;;;;4991207;28;20572;-30
2022/01/07 01:18:22;;;;;;;16.83;6.90;;;3.10;99.90;;;;;;4973985;28;20046;-29
2022/01/07 01:20:48;;;;;;;17.77;7.27;;;3.00;99.90;;;;;;4991322;28;20038;-29
2022/01/07 01:23:14;;;;;;;15.50;7.63;;;3.10;99.90;;;;;;4972782;28;20039;-29
2022/01/07 01:25:39;;;;;;;18.93;7.13;;;3.00;99.90;;;;;;4991233;28;20042;-30
2022/01/07 01:28:05;;;;;;;17.13;8.00;;;3.00;99.90;;;;;;4974659;28;20052;-29
2022/01/07 01:30:33;;;;;;;19.43;8.27;;;3.00;99.90;;;;;;4991292;28;20145;-29
2022/01/07 01:32:59;;;;;;;19.40;7.07;;;3.00;99.90;;;;;;4990411;28;20051;-29
2022/01/07 01:35:25;;;;;;;16.60;7.53;;;3.00;99.90;;;;;;4991092;28;20031;-30
2022/01/07 01:37:51;;;;;;;19.37;8.20;;;2.90;99.90;;;;;;4975266;28;20054;-29
2022/01/07 01:40:18;;;;;;;16.93;8.23;;;2.90;99.90;;;;;;4991080;28;20034;-29
2022/01/07 01:42:46;;;;;;;18.73;8.47;;;2.90;99.90;;;;;;4972899;28;20405;-30
2022/01/07 01:45:15;;;;;;;17.43;8.07;;;2.90;99.90;;;;;;4991272;28;20081;-29
2022/01/07 01:47:41;;;;;;;14.93;8.13;;;2.90;99.90;;;;;;4974696;28;21059;-29
2022/01/07 01:50:08;;;;;;;18.10;9.00;;;2.90;99.90;;;;;;4973419;28;20105;-30
2022/01/07 01:52:34;;;;;;;14.37;8.00;;;2.90;99.90;;;;;;4990033;28;20035;-30
2022/01/07 01:55:00;;;;;;;18.60;8.37;;;2.80;99.90;;;;;;4990766;28;20152;-29
2022/01/07 01:57:26;;;;;;;18.23;8.80;;;2.80;99.90;;;;;;4974141;28;20164;-29
2022/01/07 01:59:51;;;;;;;17.73;8.80;;;2.80;99.90;;;;;;4972302;28;20054;-30
2022/01/07 02:02:17;;;;;;;19.43;9.17;;;2.90;99.90;;;;;;4989666;28;20057;-29
2022/01/07 02:04:43;;;;;;;18.50;8.47;;;2.80;99.90;;;;;;4981681;28;20536;-30
2022/01/07 02:07:11;;;;;;;21.67;9.03;;;2.80;99.90;;;;;;4960604;28;20042;-30
2022/01/07 02:09:37;;;;;;;20.10;9.73;;;2.80;99.90;;;;;;4988971;28;20130;-30
2022/01/07 02:12:08;;;;;;;17.03;8.03;;;2.80;99.90;;;;;;4990500;28;20050;-29
2022/01/07 02:14:37;;;;;;;21.50;8.85;;;2.80;99.90;;;;;;4986372;28;20054;-29
2022/01/07 02:17:07;;;;;;;19.83;8.40;;;2.80;99.90;;;;;;4955232;28;20510;-30
2022/01/07 02:19:34;;;;;;;14.70;6.63;;;2.80;99.90;;;;;;4936614;28;20055;-29
2022/01/07 02:22:00;;;;;;;17.47;8.57;;;2.80;99.90;;;;;;4970729;28;20046;-29
2022/01/07 02:24:26;;;;;;;19.63;8.57;;;2.80;99.90;;;;;;4968433;28;20058;-29
2022/01/07 02:26:52;;;;;;;17.10;8.77;;;2.80;99.90;;;;;;4975016;28;20129;-29
2022/01/07 02:29:18;;;;;;;14.67;8.17;;;2.80;99.90;;;;;;4988747;28;20461;-29
2022/01/07 02:31:44;;;;;;;17.07;10.50;;;2.80;99.90;;;;;;4990324;28;20042;-30
2022/01/07 02:34:09;;;;;;;19.87;8.80;;;2.80;99.90;;;;;;4989106;28;20133;-30
2022/01/07 02:36:35;;;;;;;19.47;9.50;;;2.80;99.90;;;;;;4975926;28;20061;-29
2022/01/07 02:39:01;;;;;;;17.17;9.13;;;2.70;99.90;;;;;;4988701;28;20482;-29
2022/01/07 02:41:27;;;;;;;14.80;8.70;;;2.70;99.90;;;;;;4989725;28;20133;-29
2022/01/07 02:43:52;;;;;;;21.20;9.93;;;2.70;99.90;;;;;;4988959;28;20061;-29
2022/01/07 02:46:18;;;;;;;18.43;9.83;;;2.70;99.90;;;;;;4979078;28;20053;-30
2022/01/07 02:48:44;;;;;;;18.47;9.27;;;2.70;99.90;;;;;;4984301;28;20506;-29
2022/01/07 02:51:10;;;;;;;17.77;9.47;;;2.70;99.90;;;;;;4989897;28;20410;-29
2022/01/07 02:53:35;;;;;;;18.83;9.53;;;2.70;99.90;;;;;;4988809;28;20065;-30
2022/01/07 02:56:01;;;;;;;13.60;9.00;;;2.70;99.90;;;;;;4989674;28;20058;-30
2022/01/07 02:58:27;;;;;;;16.67;9.33;;;2.70;99.90;;;;;;4973147;28;20046;-29
2022/01/07 03:00:53;;;;;;;15.27;8.93;;;2.70;99.90;;;;;;4989827;28;20112;-29
2022/01/07 03:03:19;;;;;;;18.90;10.13;;;2.70;99.90;;;;;;4988404;28;20072;-30
2022/01/07 03:05:44;;;;;;;13.90;8.80;;;2.70;99.90;;;;;;4954873;28;20081;-30
2022/01/07 03:08:10;;;;;;;14.23;9.00;;;2.70;99.90;;;;;;4967432;28;20406;-29
2022/01/07 03:10:36;;;;;;;16.37;9.20;;;2.70;99.90;;;;;;4989522;28;20081;-30
2022/01/07 03:13:03;;;;;;;16.50;9.13;;;2.70;99.90;;;;;;4988328;28;20510;-29
2022/01/07 03:15:31;;;;;;;15.90;9.33;;;2.60;99.90;;;;;;4989365;28;20070;-29
2022/01/07 03:17:57;;;;;;;16.13;9.30;;;2.70;99.90;;;;;;4972889;28;20050;-29
2022/01/07 03:20:23;;;;;;;14.57;9.03;;;2.60;99.90;;;;;;4989178;28;20560;-29
2022/01/07 03:22:50;;;;;;;15.47;8.87;;;2.60;99.90;;;;;;4988179;28;20042;-30
2022/01/07 03:25:17;;;;;;;11.70;8.93;;;2.70;99.90;;;;;;4989013;28;20057;-29
2022/01/07 03:27:43;;;;;;;13.73;9.13;;;2.60;99.90;;;;;;4955585;28;20443;-29
2022/01/07 03:30:10;;;;;;;16.67;9.30;;;2.60;99.90;;;;;;4988884;28;20564;-29
2022/01/07 03:32:36;;;;;;;14.80;9.07;;;2.70;99.90;;;;;;4970698;28;20077;-29
2022/01/07 03:35:09;;;;;;;14.07;9.37;;;2.70;99.90;;;;;;4989137;28;20065;-29
2022/01/07 03:37:35;;;;;;;16.13;10.00;;;2.60;99.90;;;;;;4967816;28;20050;-29
2022/01/07 03:40:01;;;;;;;17.60;9.97;;;2.60;99.90;;;;;;4989493;28;20119;-29
2022/01/07 03:42:27;;;;;;;16.60;9.23;;;2.70;99.90;;;;;;4988137;28;20043;-29
2022/01/07 03:44:53;;;;;;;19.30;10.23;;;2.70;99.90;;;;;;4989228;28;20053;-29
2022/01/07 03:47:18;;;;;;;15.57;9.87;;;2.70;99.90;;;;;;4972369;28;20057;-29
2022/01/07 03:49:44;;;;;;;17.00;10.43;;;2.70;99.90;;;;;;4988558;28;20050;-30
2022/01/07 03:52:09;;;;;;;17.47;10.47;;;2.70;99.90;;;;;;4979683;28;20050;-29
2022/01/07 03:54:35;;;;;;;20.53;10.83;;;2.70;99.90;;;;;;4951816;28;20055;-29
2022/01/07 03:57:01;;;;;;;15.67;10.63;;;2.70;99.90;;;;;;4936962;28;20053;-29
2022/01/07 03:59:27;;;;;;;19.20;11.10;;;2.70;99.90;;;;;;4950891;28;20410;-30
2022/01/07 04:01:53;;;;;;;15.30;10.63;;;2.70;99.90;;;;;;4982390;28;20053;-29
2022/01/07 04:04:19;;;;;;;17.20;10.63;;;2.70;99.90;;;;;;4984205;28;20387;-29
2022/01/07 04:06:44;;;;;;;17.83;10.57;;;2.70;99.90;;;;;;4973399;28;20545;-29
2022/01/07 04:09:10;;;;;;;18.87;10.47;;;2.70;99.90;;;;;;4987554;28;20049;-29
2022/01/07 04:11:36;;;;;;;18.73;11.10;;;2.70;99.90;;;;;;4971488;28;20050;-29
2022/01/07 04:14:01;;;;;;;15.70;10.20;;;2.80;99.90;;;;;;4987470;28;20425;-29
2022/01/07 04:16:27;;;;;;;17.43;10.27;;;2.80;99.90;;;;;;4976575;28;20499;-30
2022/01/07 04:18:53;;;;;;;14.73;10.17;;;2.80;99.90;;;;;;4984379;28;20061;-29
2022/01/07 04:21:18;;;;;;;16.10;10.37;;;2.70;99.90;;;;;;4971018;28;20516;-29
2022/01/07 04:23:44;;;;;;;16.50;10.70;;;2.80;99.90;;;;;;4991638;28;20050;-29
2022/01/07 04:26:10;;;;;;;16.60;11.03;;;2.80;99.90;;;;;;4986330;28;20053;-30
2022/01/07 04:28:35;;;;;;;18.70;10.23;;;2.80;99.90;;;;;;4984017;28;20034;-29
2022/01/07 04:31:01;;;;;;;14.00;9.77;;;2.80;99.90;;;;;;4992483;28;20061;-29
2022/01/07 04:33:30;;;;;;;14.37;10.73;;;2.80;99.90;;;;;;4957863;28;20410;-29
2022/01/07 04:35:56;;;;;;;15.07;10.37;;;2.80;99.90;;;;;;4992164;28;20046;-29
2022/01/07 04:38:22;;;;;;;15.17;10.50;;;2.80;99.90;;;;;;4976735;28;20050;-29
2022/01/07 04:40:48;;;;;;;15.00;10.17;;;2.80;99.90;;;;;;4992468;28;20560;-29
2022/01/07 04:43:15;;;;;;;18.87;11.23;;;2.80;99.90;;;;;;4991556;28;20420;-29
2022/01/07 04:45:41;;;;;;;17.90;10.60;;;2.80;99.90;;;;;;4991856;28;20605;-29
2022/01/07 04:48:08;;;;;;;15.77;10.93;;;2.80;99.90;;;;;;4975807;28;20478;-29
2022/01/07 04:50:34;;;;;;;17.07;11.43;;;2.90;99.90;;;;;;4992089;28;20127;-29
2022/01/07 04:53:00;;;;;;;17.70;10.67;;;2.80;99.90;;;;;;4990948;28;20104;-29
2022/01/07 04:55:36;;;;;;;17.37;11.33;;;2.90;99.90;;;;;;4988198;28;20549;-29
2022/01/07 04:58:03;;;;;;;17.70;11.20;;;2.90;99.90;;;;;;4975845;28;20060;-30
2022/01/07 05:00:29;;;;;;;16.70;11.30;;;2.90;99.90;;;;;;4973668;28;20046;-29
2022/01/07 05:02:55;;;;;;;17.63;11.40;;;2.90;99.90;;;;;;4972174;28;20048;-30
2022/01/07 05:05:21;;;;;;;16.13;12.10;;;2.90;99.90;;;;;;4968552;28;20129;-30
2022/01/07 05:07:46;;;;;;;17.67;11.67;;;2.90;99.90;;;;;;4951979;28;20058;-30
2022/01/07 05:10:14;;;;;;;15.60;11.43;;;2.90;99.90;;;;;;4950812;28;20539;-29
2022/01/07 05:12:42;;;;;;;17.03;11.60;;;3.00;99.90;;;;;;4990388;28;20042;-29
2022/01/07 05:15:09;;;;;;;17.77;11.13;;;2.90;99.90;;;;;;4990673;28;20047;-30
2022/01/07 05:17:35;;;;;;;14.63;11.63;;;2.90;99.90;;;;;;4975095;28;20057;-30
2022/01/07 05:20:03;;;;;;;16.40;11.50;;;2.90;99.90;;;;;;4991570;28;20042;-30
2022/01/07 05:22:28;;;;;;;20.87;11.47;;;3.00;99.90;;;;;;4990558;28;20537;-29
2022/01/07 05:24:54;;;;;;;16.63;11.70;;;3.00;99.90;;;;;;4991750;28;20352;-30
2022/01/07 05:27:20;;;;;;;16.90;11.80;;;3.00;99.90;;;;;;4974768;28;20042;-30
2022/01/07 05:29:46;;;;;;;20.00;11.80;;;3.00;99.90;;;;;;4991426;28;20327;-29
2022/01/07 05:32:12;;;;;;;16.00;11.23;;;3.00;99.90;;;;;;4972836;28;20552;-30
2022/01/07 05:34:38;;;;;;;17.17;11.37;;;3.00;99.90;;;;;;4990973;28;20498;-30
2022/01/07 05:37:04;;;;;;;19.33;12.03;;;3.00;99.90;;;;;;4975847;28;20043;-30
2022/01/07 05:39:30;;;;;;;18.47;11.37;;;3.10;99.90;;;;;;4973549;28;20046;-29
2022/01/07 05:41:57;;;;;;;20.33;10.93;;;3.10;99.90;;;;;;4991266;28;20421;-30
2022/01/07 05:44:23;;;;;;;15.93;11.77;;;3.10;99.90;;;;;;4972544;28;20086;-30
2022/01/07 05:46:49;;;;;;;17.10;11.37;;;3.10;99.90;;;;;;4958159;28;20514;-30
2022/01/07 05:49:15;;;;;;;17.53;11.80;;;3.10;99.90;;;;;;4989692;28;20453;-30
2022/01/07 05:51:41;;;;;;;17.03;12.30;;;3.10;99.90;;;;;;4990993;28;20042;-29
2022/01/07 05:54:08;;;;;;;21.70;11.90;;;3.10;99.90;;;;;;4972320;28;20085;-28
2022/01/07 05:56:34;;;;;;;25.43;12.77;;;3.10;99.90;;;;;;4959524;28;20391;-30
2022/01/07 05:58:59;;;;;;;19.30;12.00;;;3.10;99.90;;;;;;4988483;28;20054;-30
2022/01/07 06:01:25;;;;;;;21.00;12.50;;;3.20;99.90;;;;;;4991027;28;20070;-29
2022/01/07 06:03:51;;;;;;;16.97;12.20;;;3.10;99.90;;;;;;4989511;28;20042;-29
2022/01/07 06:06:16;;;;;;;18.77;12.63;;;3.20;99.90;;;;;;4979628;28;20042;-30
2022/01/07 06:08:42;;;;;;;17.83;11.83;;;3.20;99.90;;;;;;4984810;28;20050;-29
2022/01/07 06:11:08;;;;;;;20.10;12.37;;;3.20;99.90;;;;;;4990789;28;20552;-30
2022/01/07 06:13:33;;;;;;;16.50;11.77;;;3.20;99.90;;;;;;4972247;28;20506;-29
2022/01/07 06:15:59;;;;;;;16.43;12.10;;;3.20;99.90;;;;;;4972885;28;20058;-30
2022/01/07 06:18:25;;;;;;;20.37;13.30;;;3.20;99.90;;;;;;4949794;28;20039;-29
2022/01/07 06:20:50;;;;;;;17.00;11.60;;;3.20;99.90;;;;;;4971159;28;20121;-29
2022/01/07 06:23:16;;;;;;;20.43;12.20;;;3.20;99.90;;;;;;4956175;28;20101;-30
2022/01/07 06:25:44;;;;;;;19.27;12.90;;;3.20;99.90;;;;;;4978591;28;20533;-30
2022/01/07 06:28:10;;;;;;;17.57;12.33;;;3.20;99.90;;;;;;4961093;28;20046;-30
2022/01/07 06:30:36;;;;;;;18.33;12.40;;;3.20;99.90;;;;;;4981567;28;20096;-30
2022/01/07 06:33:02;;;;;;;16.07;12.00;;;3.20;99.90;;;;;;4978283;28;20450;-30
2022/01/07 06:35:28;;;;;;;17.83;12.30;;;3.20;99.90;;;;;;4962611;28;20409;-29
2022/01/07 06:37:53;;;;;;;16.77;11.30;;;3.20;99.90;;;;;;4963946;28;20105;-29
2022/01/07 06:40:19;;;;;;;17.97;12.07;;;3.20;99.90;;;;;;4978218;28;20098;-30
2022/01/07 06:42:45;;;;;;;16.73;11.70;;;3.30;99.90;;;;;;4977435;28;20050;-30
2022/01/07 06:45:10;;;;;;;17.00;11.90;;;3.30;99.90;;;;;;4956333;28;20081;-30
2022/01/07 06:47:36;;;;;;;16.30;12.27;;;3.30;99.90;;;;;;4952781;28;20047;-29
2022/01/07 06:50:03;;;;;;;17.03;11.27;;;3.30;99.90;;;;;;4969270;28;20058;-30
2022/01/07 06:52:29;;;;;;;16.27;11.53;;;3.30;99.90;;;;;;4968305;28;20267;-29
2022/01/07 06:54:56;;;;;;;17.80;11.63;;;3.30;99.90;;;;;;4951357;28;20062;-30
2022/01/07 06:57:22;;;;;;;16.00;11.33;;;3.30;99.90;;;;;;4953133;28;20125;-30
2022/01/07 06:59:47;;;;;;;16.80;11.70;;;3.30;99.90;;;;;;4977122;28;20463;-29
2022/01/07 07:02:13;;;;;;;17.90;12.50;;;3.30;99.90;;;;;;4978022;28;20047;-29
2022/01/07 07:04:39;;;;;;;18.20;12.10;;;3.40;99.90;;;;;;4961048;28;20437;-30
2022/01/07 07:07:05;;;;;;;19.70;13.20;;;3.30;99.90;;;;;;4964834;28;20054;-30
2022/01/07 07:09:31;;;;;;;17.83;12.00;;;3.40;99.90;;;;;;4963117;28;20256;-30
2022/01/07 07:11:57;;;;;;;15.27;12.20;;;3.40;99.90;;;;;;4962357;28;20077;-29
2022/01/07 07:14:22;;;;;;;16.90;12.20;;;3.40;99.90;;;;;;4978216;28;20600;-30
2022/01/07 07:16:48;;;;;;;18.07;12.80;;;3.40;99.90;;;;;;4969506;28;20454;-30
2022/01/07 07:19:14;;;;;;;17.00;13.20;;;3.40;99.90;;;;;;4979463;28;20046;-30
2022/01/07 07:21:40;;;;;;;19.97;12.87;;;3.40;99.90;;;;;;4981764;28;20058;-30
2022/01/07 07:24:06;;;;;;;22.57;14.07;;;3.50;99.90;;;;;;4962722;28;20049;-30
2022/01/07 07:26:32;;;;;;;21.90;14.10;;;3.50;99.90;;;;;;4964024;28;20047;-29
2022/01/07 07:28:58;;;;;;;21.23;14.33;;;3.50;99.90;;;;;;4974556;28;20042;-30
2022/01/07 07:31:24;;;;;;;24.07;15.20;;;3.50;99.90;;;;;;4984525;28;20054;-30
2022/01/07 07:36:27;;;;;;;25.03;15.90;;;3.60;99.90;;;;;;4975082;28;20092;-29
2022/01/07 07:38:54;;;;;;;22.77;15.30;;;3.60;99.90;;;;;;4981833;28;20173;-29
2022/01/07 07:41:19;;;;;;;20.07;15.63;;;3.70;99.90;;;;;;4984911;28;20125;-30
2022/01/07 07:43:50;;;;;;;20.90;15.00;;;3.60;99.90;;;;;;4983756;28;20763;-29
2022/01/07 07:46:17;;;;;;;24.67;15.20;;;3.70;99.90;;;;;;4957731;28;20185;-30
2022/01/07 07:48:43;;;;;;;24.20;15.03;;;3.70;99.90;;;;;;4979031;28;20042;-30
2022/01/07 07:51:09;;;;;;;22.40;15.67;;;3.70;99.90;;;;;;4984944;28;20061;-30
2022/01/07 07:53:34;;;;;;;25.77;15.93;;;3.60;99.90;;;;;;4983706;28;20046;-30
2022/01/07 07:56:00;;;;;;;27.13;16.50;;;3.60;99.90;;;;;;4984440;28;20163;-29
2022/01/07 07:58:27;;;;;;;26.90;17.20;;;3.60;99.90;;;;;;4950723;28;20489;-30
2022/01/07 08:00:53;;;;;;;31.13;16.80;;;3.80;99.90;;;;;;4985710;28;20070;-29
2022/01/07 08:03:24;;;;;;;26.17;17.93;;;3.70;99.90;;;;;;4984193;28;20483;-29
2022/01/07 08:05:49;;;;;;;28.93;18.27;;;3.70;99.90;;;;;;4985334;28;20545;-30
2022/01/07 08:08:15;;;;;;;23.03;17.77;;;3.70;99.90;;;;;;4969407;28;20137;-29
2022/01/07 08:10:47;;;;;;;30.93;18.17;;;3.70;99.90;;;;;;4985526;28;20330;-30
2022/01/07 08:15:59;;;;;;;27.97;18.33;;;3.80;99.90;;;;;;4984932;28;20046;-30
2022/01/07 08:18:29;;;;;;;31.67;18.73;;;3.80;99.90;;;;;;4951192;28;20101;-30
2022/01/07 08:20:56;;;;;;;30.00;18.33;;;3.80;99.90;;;;;;4968697;28;20378;-30
2022/01/07 08:23:22;;;;;;;30.70;18.00;;;3.80;99.90;;;;;;4986935;28;20189;-29
2022/01/07 08:25:49;;;;;;;29.77;18.10;;;3.80;99.90;;;;;;4987692;28;20042;-30
2022/01/07 08:28:16;;;;;;;31.37;18.30;;;4.00;99.90;;;;;;4968532;28;20031;-30
2022/01/07 08:31:01;;;;;;;29.37;18.50;;;3.80;99.90;;;;;;4963831;28;20049;-29
2022/01/07 08:36:12;;;;;;;30.33;19.33;;;3.80;99.90;;;;;;4973184;28;20138;-30
2022/01/07 08:38:38;;;;;;;27.50;18.30;;;3.80;99.90;;;;;;4956172;28;20606;-30
2022/01/07 08:41:05;;;;;;;33.60;19.60;;;3.90;99.90;;;;;;4975380;28;20137;-29
2022/01/07 08:43:31;;;;;;;29.67;18.33;;;3.90;99.90;;;;;;4980305;28;20369;-30
2022/01/07 08:45:57;;;;;;;29.37;19.40;;;3.90;99.90;;;;;;4987356;28;20058;-30
2022/01/07 08:48:25;;;;;;;28.63;18.63;;;3.90;99.90;;;;;;4970173;28;20073;-30
2022/01/07 08:50:51;;;;;;;28.67;18.37;;;3.90;99.90;;;;;;4970547;28;20050;-30
2022/01/07 08:53:16;;;;;;;33.30;18.97;;;3.90;99.90;;;;;;4969935;28;20046;-30
2022/01/07 08:55:42;;;;;;;31.93;19.37;;;4.00;99.90;;;;;;4986500;28;20069;-30
2022/01/07 08:58:08;;;;;;;31.47;19.03;;;4.00;99.90;;;;;;4970166;28;20487;-30
2022/01/07 09:00:33;;;;;;;33.37;19.23;;;4.00;99.90;;;;;;4964724;28;20100;-29
2022/01/07 09:03:00;;;;;;;31.30;18.80;;;4.00;99.90;;;;;;4984147;28;20456;-30
2022/01/07 09:05:26;;;;;;;26.63;17.77;;;4.00;99.90;;;;;;4986594;28;20046;-29
2022/01/07 09:07:52;;;;;;;32.17;18.23;;;4.10;99.90;;;;;;4971185;28;20085;-30
2022/01/07 09:10:18;;;;;;;27.83;19.10;;;4.10;99.90;;;;;;4980797;28;20069;-30
2022/01/07 09:12:45;;;;;;;34.47;19.37;;;4.10;99.90;;;;;;4983995;28;20049;-30
2022/01/07 09:15:11;;;;;;;33.23;19.30;;;4.10;99.90;;;;;;4988691;28;20054;-29
2022/01/07 09:17:36;;;;;;;34.67;18.90;;;4.10;99.90;;;;;;4970600;28;20098;-29
2022/01/07 09:20:03;;;;;;;30.50;19.60;;;4.20;99.90;;;;;;4987878;28;20488;-29
2022/01/07 09:22:29;;;;;;;36.27;19.83;;;4.20;99.90;;;;;;4988455;28;20492;-30
2022/01/07 09:24:55;;;;;;;31.13;20.83;;;4.20;99.90;;;;;;4988557;28;20073;-29
2022/01/07 09:27:21;;;;;;;34.80;20.73;;;4.30;99.90;;;;;;4955332;28;20046;-29
2022/01/07 09:29:46;;;;;;;31.67;19.60;;;4.40;99.90;;;;;;4989033;28;20402;-29
2022/01/07 09:32:12;;;;;;;33.67;19.60;;;4.30;99.90;;;;;;4988802;28;20572;-29
2022/01/07 09:34:38;;;;;;;39.53;20.47;;;4.40;99.90;;;;;;4989177;28;20046;-30
2022/01/07 09:37:04;;;;;;;37.83;21.40;;;4.40;99.90;;;;;;4972818;28;20396;-30
2022/01/07 09:39:32;;;;;;;35.93;20.70;;;4.40;99.90;;;;;;4988768;28;20129;-30
2022/01/07 09:42:00;;;;;;;32.93;20.17;;;4.40;99.90;;;;;;4988680;28;20116;-30
2022/01/07 09:44:26;;;;;;;34.77;21.33;;;4.50;99.90;;;;;;4987947;28;20137;-30
2022/01/07 09:46:52;;;;;;;37.63;21.17;;;4.50;99.90;;;;;;4973335;28;20154;-29
2022/01/07 09:49:17;;;;;;;36.10;20.07;;;4.50;99.90;;;;;;4987696;28;20046;-29
2022/01/07 09:51:43;;;;;;;35.87;20.07;;;4.50;99.90;;;;;;4989055;28;20042;-30
2022/01/07 09:54:09;;;;;;;35.97;18.83;;;4.50;99.90;;;;;;4987925;28;20042;-30
2022/01/07 09:56:37;;;;;;;37.87;18.17;;;4.50;99.90;;;;;;4971774;28;20055;-29
2022/01/07 09:59:05;;;;;;;31.80;18.43;;;4.50;99.90;;;;;;4985824;28;20050;-30
2022/01/07 10:01:51;;;;;;;28.27;17.63;;;4.50;99.90;;;;;;4988406;28;20050;-29
2022/01/07 10:04:27;;;;;;;29.27;14.90;;;4.50;99.90;;;;;;4985124;28;20042;-30
2022/01/07 10:07:17;;;;;;;27.13;14.83;;;4.50;99.90;;;;;;4970348;28;20516;-29
2022/01/07 10:10:10;;;;;;;27.37;14.83;;;4.50;99.90;;;;;;4987165;28;20046;-30
2022/01/07 10:12:52;;;;;;;24.43;13.70;;;4.50;99.90;;;;;;4986950;28;20073;-30
2022/01/07 10:15:20;;;;;;;21.13;12.17;;;4.40;99.90;;;;;;4987929;28;20108;-29
2022/01/07 10:18:05;;;;;;;20.00;11.93;;;4.40;99.90;;;;;;4954102;28;20524;-29
2022/01/07 10:20:32;;;;;;;18.57;11.67;;;4.50;99.90;;;;;;4968156;28;20502;-30
2022/01/07 10:23:07;;;;;;;17.90;10.27;;;4.50;99.90;;;;;;4986655;28;20050;-30
2022/01/07 10:25:45;;;;;;;11.70;7.73;;;4.50;99.90;;;;;;4982806;28;20034;-29
2022/01/07 10:28:15;;;;;;;14.37;7.07;;;4.50;99.90;;;;;;4966033;28;20105;-29
2022/01/07 10:30:47;;;;;;;10.90;6.67;;;4.50;99.90;;;;;;4964296;28;20307;-30
2022/01/07 10:33:21;;;;;;;8.30;5.27;;;4.50;99.90;;;;;;4982519;28;20100;-30
2022/01/07 10:35:58;;;;;;;9.23;5.87;;;4.60;99.90;;;;;;4982747;28;20042;-30
2022/01/07 10:38:27;;;;;;;7.10;5.10;;;4.60;99.90;;;;;;4967773;28;20125;-30
2022/01/07 10:40:56;;;;;;;7.57;5.23;;;4.70;99.90;;;;;;4965310;28;20113;-29
2022/01/07 10:43:25;;;;;;;9.40;4.93;;;4.70;99.90;;;;;;4979856;28;20083;-29
2022/01/07 10:45:58;;;;;;;8.27;4.20;;;4.60;99.90;;;;;;4962674;28;20039;-29
2022/01/07 10:48:47;;;;;;;6.87;3.83;;;4.50;99.90;;;;;;4964443;28;20566;-30
2022/01/07 10:51:18;;;;;;;9.83;3.67;;;4.70;99.90;;;;;;4980769;28;20042;-30
2022/01/07 10:53:50;;;;;;;7.27;3.70;;;4.90;99.90;;;;;;4981521;28;20093;-30
2022/01/07 10:56:19;;;;;;;7.63;3.40;;;5.00;99.90;;;;;;4969563;28;20275;-30
2022/01/07 10:58:52;;;;;;;7.13;2.90;;;5.10;99.90;;;;;;4976397;28;20514;-30
2022/01/07 11:01:21;;;;;;;7.10;2.57;;;5.10;99.90;;;;;;4979562;28;20430;-30
2022/01/07 11:03:47;;;;;;;6.63;2.43;;;5.10;99.90;;;;;;4983072;28;20518;-30
2022/01/07 11:06:13;;;;;;;10.70;2.83;;;5.10;99.90;;;;;;4970717;28;20093;-30
2022/01/07 11:08:40;;;;;;;6.67;2.20;;;5.10;99.90;;;;;;4953687;28;20093;-30
2022/01/07 11:11:08;;;;;;;6.00;2.53;;;5.00;99.90;;;;;;4980837;28;20075;-30
2022/01/07 11:13:35;;;;;;;7.47;2.60;;;5.00;99.90;;;;;;4980057;28;20054;-30
2022/01/07 11:16:05;;;;;;;9.40;2.63;;;5.00;99.90;;;;;;4961923;28;20050;-29
2022/01/07 11:18:32;;;;;;;4.73;1.93;;;5.10;99.90;;;;;;4958026;28;20112;-30
2022/01/07 11:21:01;;;;;;;9.83;3.03;;;5.10;99.90;;;;;;4958844;28;20057;-30
2022/01/07 11:23:28;;;;;;;10.77;3.27;;;5.20;99.90;;;;;;4986997;28;20042;-30
2022/01/07 11:26:04;;;;;;;9.73;3.17;;;5.30;99.90;;;;;;4969433;28;20046;-30
2022/01/07 11:28:31;;;;;;;9.10;3.37;;;5.40;99.90;;;;;;4953333;28;20054;-30
2022/01/07 11:31:14;;;;;;;11.40;4.53;;;5.50;99.90;;;;;;4987380;28;20053;-30
2022/01/07 11:33:43;;;;;;;9.73;4.30;;;5.60;99.90;;;;;;4986983;28;20042;-30
2022/01/07 11:36:32;;;;;;;11.73;5.30;;;5.80;99.90;;;;;;4979842;28;20108;-30
2022/01/07 11:39:01;;;;;;;11.40;5.10;;;5.90;99.90;;;;;;4984089;28;20049;-30
2022/01/07 11:41:50;;;;;;;9.50;5.40;;;5.80;99.90;;;;;;4967152;28;20492;-30
2022/01/07 11:44:27;;;;;;;11.37;5.87;;;5.90;99.90;;;;;;4960773;28;20059;-30
2022/01/07 11:47:13;;;;;;;14.70;6.47;;;5.90;99.90;;;;;;4969116;28;20056;-30
2022/01/07 11:49:39;;;;;;;13.17;6.33;;;5.90;99.90;;;;;;4958473;28;20057;-30
2022/01/07 11:52:27;;;;;;;13.47;6.57;;;5.80;99.90;;;;;;4969372;28;20677;-30
2022/01/07 11:55:22;;;;;;;12.40;6.13;;;5.90;99.90;;;;;;4987440;28;20043;-30
2022/01/07 11:57:54;;;;;;;14.67;6.43;;;5.90;99.90;;;;;;4970978;28;20057;-30
2022/01/07 12:00:51;;;;;;;15.70;7.33;;;6.00;99.90;;;;;;4984543;28;20066;-30
2022/01/07 12:03:35;;;;;;;15.43;6.40;;;6.10;99.90;;;;;;4985664;28;20064;-30
2022/01/07 12:06:26;;;;;;;17.27;6.90;;;6.10;99.90;;;;;;4965792;28;20050;-31
2022/01/07 12:11:29;;;;;;;16.70;7.20;;;6.10;99.90;;;;;;4981955;28;20050;-30
2022/01/07 12:13:55;;;;;;;20.00;7.30;;;6.10;99.90;;;;;;4981224;28;20276;-30
2022/01/07 12:16:33;;;;;;;16.10;7.43;;;6.00;99.90;;;;;;4955063;28;20096;-30
2022/01/07 12:19:21;;;;;;;15.43;7.33;;;6.00;99.90;;;;;;4982631;28;20061;-30
2022/01/07 12:21:48;;;;;;;17.93;7.80;;;5.90;99.90;;;;;;4984393;28;20054;-29
2022/01/07 12:24:21;;;;;;;15.23;7.90;;;5.80;99.90;;;;;;4982422;28;20496;-30
2022/01/07 12:27:00;;;;;;;17.10;8.50;;;5.80;99.90;;;;;;4967697;28;20043;-30
2022/01/07 12:29:33;;;;;;;20.80;8.37;;;5.90;99.90;;;;;;4982864;28;20046;-29
2022/01/07 12:32:00;;;;;;;22.03;8.63;;;5.80;99.90;;;;;;4984187;28;20046;-30
2022/01/07 12:34:40;;;;;;;15.30;8.20;;;5.80;99.90;;;;;;4984094;28;20092;-30
2022/01/07 12:37:09;;;;;;;20.23;8.43;;;5.80;99.90;;;;;;4969604;28;20089;-30
2022/01/07 12:39:38;;;;;;;17.57;8.00;;;5.80;99.90;;;;;;4982045;28;20054;-30
2022/01/07 12:42:05;;;;;;;16.03;8.00;;;5.80;99.90;;;;;;4986445;28;20047;-32
2022/01/07 12:44:40;;;;;;;18.70;7.27;;;5.90;99.90;;;;;;4990346;28;20054;-29
2022/01/07 12:47:07;;;;;;;15.40;6.57;;;6.00;99.90;;;;;;4973293;28;20816;-30
2022/01/07 12:49:37;;;;;;;16.67;6.30;;;6.00;99.90;;;;;;4990550;28;20045;-30
2022/01/07 12:52:08;;;;;;;11.93;5.27;;;6.10;99.90;;;;;;4957012;28;20061;-29
2022/01/07 12:54:35;;;;;;;13.38;4.47;;;6.00;99.90;;;;;;4972295;28;20053;-29
2022/01/07 12:57:01;;;;;;;12.70;4.40;;;6.00;99.90;;;;;;4974051;28;20066;-30